Time;durP1;ratioP1;P1;durP2;ratioP2;P2;SDS_P1;SDS_P2;PMS_P1;PMS_P2;Temp;Humidity;BMP_temperature;BMP_pressure;BME280_temperature;BME280_humidity;BME280_pressure;Samples;Min_cycle;Max_cycle;Signal;HPM_P1;HPM_P2
2024/03/25 00:00:27;;;;;;;28.42;4.25;;;6.20;99.90;;;;;;5068730;28;20045;-64
2024/03/25 00:02:54;;;;;;;28.80;4.57;;;6.20;99.90;;;;;;5070644;28;20087;-64
2024/03/25 00:05:22;;;;;;;28.05;3.42;;;6.10;99.90;;;;;;5071046;28;20055;-64
2024/03/25 00:07:48;;;;;;;16.20;3.45;;;6.00;99.90;;;;;;5065180;28;20064;-64
2024/03/25 00:10:15;;;;;;;21.08;3.30;;;6.00;90.80;;;;;;5076142;28;20073;-64
2024/03/25 00:12:40;;;;;;;25.60;3.55;;;6.00;43.00;;;;;;5076708;28;20062;-64
2024/03/25 00:15:07;;;;;;;12.65;3.03;;;6.00;16.90;;;;;;5073961;28;20493;-64
2024/03/25 00:17:33;;;;;;;29.92;3.97;;;6.00;61.00;;;;;;5083630;28;20044;-64
2024/03/25 00:19:59;;;;;;;28.60;4.57;;;6.00;83.20;;;;;;5078152;28;20055;-64
2024/03/25 00:22:25;;;;;;;22.65;4.32;;;6.00;99.70;;;;;;5083033;28;20554;-64
2024/03/25 00:24:51;;;;;;;25.17;3.33;;;6.00;99.90;;;;;;5081815;28;20044;-64
2024/03/25 00:27:18;;;;;;;25.08;3.60;;;6.00;99.90;;;;;;5064773;28;20052;-63
2024/03/25 00:29:44;;;;;;;23.67;3.50;;;5.90;99.90;;;;;;5078022;28;20036;-64
2024/03/25 00:32:10;;;;;;;18.73;3.08;;;5.90;99.90;;;;;;5080659;28;20041;-64
2024/03/25 00:34:36;;;;;;;27.85;3.83;;;5.90;99.90;;;;;;5076979;28;20051;-64
2024/03/25 00:37:03;;;;;;;25.70;4.45;;;5.90;99.90;;;;;;5082107;28;20079;-64
2024/03/25 00:39:32;;;;;;;28.95;4.90;;;5.80;99.90;;;;;;5083104;28;20048;-64
2024/03/25 00:41:58;;;;;;;32.80;4.28;;;5.80;99.90;;;;;;5082416;28;20409;-64
2024/03/25 00:44:25;;;;;;;28.33;4.57;;;5.80;99.90;;;;;;5071293;28;20076;-64
2024/03/25 00:46:51;;;;;;;26.33;3.70;;;5.90;99.90;;;;;;5082253;28;20032;-64
2024/03/25 00:49:17;;;;;;;23.15;3.75;;;5.90;99.90;;;;;;5067858;28;20040;-64
2024/03/25 00:51:42;;;;;;;21.80;2.85;;;6.00;99.90;;;;;;5078482;28;20138;-64
2024/03/25 00:54:08;;;;;;;23.25;3.63;;;6.00;99.90;;;;;;5070788;28;20056;-64
2024/03/25 00:56:34;;;;;;;21.25;2.95;;;6.10;99.90;;;;;;5080238;28;20048;-64
2024/03/25 00:59:02;;;;;;;21.38;2.83;;;6.10;99.90;;;;;;5073258;28;20094;-64
2024/03/25 01:01:32;;;;;;;24.85;5.32;;;6.10;55.70;;;;;;5073509;28;20088;-64
2024/03/25 01:03:58;;;;;;;24.60;3.73;;;6.10;61.80;;;;;;5078887;28;20064;-64
2024/03/25 01:06:23;;;;;;;31.02;4.53;;;6.10;71.40;;;;;;5074597;28;20037;-64
2024/03/25 01:08:50;;;;;;;25.33;4.03;;;6.20;65.70;;;;;;5066370;28;20086;-64
2024/03/25 01:11:16;;;;;;;22.63;3.45;;;6.10;29.20;;;;;;5076350;28;20051;-64
2024/03/25 01:13:42;;;;;;;26.13;4.45;;;6.10;1.00;;;;;;5075393;28;20844;-64
2024/03/25 01:16:08;;;;;;;29.60;4.65;;;6.10;1.00;;;;;;5079102;28;20036;-64
2024/03/25 01:18:34;;;;;;;26.27;5.03;;;6.10;23.50;;;;;;5070353;28;20148;-64
2024/03/25 01:21:00;;;;;;;32.30;4.22;;;6.10;33.20;;;;;;5086775;28;20143;-64
2024/03/25 01:23:26;;;;;;;28.67;3.83;;;6.10;14.00;;;;;;5082430;28;20131;-64
2024/03/25 01:25:52;;;;;;;34.00;3.75;;;6.10;22.90;;;;;;5080895;28;20049;-63
2024/03/25 01:28:17;;;;;;;33.88;4.53;;;6.20;12.70;;;;;;5082025;28;20048;-64
2024/03/25 01:30:43;;;;;;;22.10;4.50;;;6.20;13.30;;;;;;5070390;28;20040;-64
2024/03/25 01:33:09;;;;;;;21.85;4.28;;;6.20;19.20;;;;;;5078316;28;20087;-64
2024/03/25 01:35:36;;;;;;;28.45;4.07;;;6.20;1.00;;;;;;5078152;28;20042;-64
2024/03/25 01:38:02;;;;;;;22.27;3.42;;;6.20;1.00;;;;;;5083415;28;20348;-64
2024/03/25 01:40:28;;;;;;;25.13;3.05;;;6.20;1.00;;;;;;5080331;28;20044;-64
2024/03/25 01:42:58;;;;;;;24.10;3.25;;;6.10;1.00;;;;;;5068458;28;20048;-64
2024/03/25 01:45:25;;;;;;;22.23;4.00;;;6.10;1.00;;;;;;5074745;28;20126;-64
2024/03/25 01:47:52;;;;;;;17.95;3.13;;;6.10;1.00;;;;;;5070901;28;20131;-63
2024/03/25 01:50:18;;;;;;;12.73;3.17;;;6.10;1.00;;;;;;5069965;28;20498;-64
2024/03/25 01:52:44;;;;;;;17.80;2.50;;;6.10;99.90;;;;;;5072280;28;20950;-64
2024/03/25 01:55:13;;;;;;;12.98;2.33;;;6.10;99.90;;;;;;5076599;28;20061;-63
2024/03/25 01:57:39;;;;;;;16.38;2.70;;;6.10;99.90;;;;;;5074363;28;20043;-64
2024/03/25 02:00:06;;;;;;;17.92;2.70;;;6.00;99.90;;;;;;5068179;28;20033;-63
2024/03/25 02:02:35;;;;;;;16.13;2.22;;;6.00;99.90;;;;;;5079077;28;20131;-64
2024/03/25 02:05:02;;;;;;;15.25;2.55;;;6.00;99.90;;;;;;5081735;28;20091;-64
2024/03/25 02:07:31;;;;;;;13.30;1.77;;;6.00;99.90;;;;;;5077766;28;20032;-64
2024/03/25 02:09:57;;;;;;;9.43;1.52;;;6.00;99.90;;;;;;5067431;28;20155;-63
2024/03/25 02:12:26;;;;;;;12.50;2.73;;;6.00;99.90;;;;;;5082574;28;20048;-63
2024/03/25 02:14:53;;;;;;;17.77;2.85;;;6.00;99.90;;;;;;5080383;28;20105;-64
2024/03/25 02:17:19;;;;;;;13.73;2.80;;;6.10;99.90;;;;;;5065364;28;20056;-64
2024/03/25 02:19:45;;;;;;;21.88;2.50;;;6.10;99.90;;;;;;5079896;28;20058;-63
2024/03/25 02:22:10;;;;;;;13.52;3.13;;;6.10;99.90;;;;;;5077741;28;20117;-64
2024/03/25 02:24:38;;;;;;;17.23;2.35;;;6.10;99.90;;;;;;5079317;28;20157;-63
2024/03/25 02:27:04;;;;;;;15.93;3.13;;;6.10;99.90;;;;;;5070770;28;20518;-64
2024/03/25 02:29:36;;;;;;;12.73;2.78;;;6.10;99.90;;;;;;5074413;28;20085;-63
2024/03/25 02:32:01;;;;;;;17.65;2.65;;;6.10;99.90;;;;;;5070648;28;20049;-63
2024/03/25 02:34:27;;;;;;;17.25;2.90;;;6.10;99.90;;;;;;5069082;28;20040;-64
2024/03/25 02:36:53;;;;;;;13.60;3.65;;;6.10;99.90;;;;;;5059928;28;20449;-64
2024/03/25 02:39:20;;;;;;;18.25;4.63;;;6.10;99.90;;;;;;5065939;28;20040;-63
2024/03/25 02:41:46;;;;;;;21.83;4.22;;;6.10;99.90;;;;;;5061308;28;20052;-63
2024/03/25 02:44:12;;;;;;;19.90;4.90;;;6.10;99.90;;;;;;5071848;28;20049;-63
2024/03/25 02:46:40;;;;;;;17.55;4.03;;;6.10;99.90;;;;;;5070447;28;20079;-63
2024/03/25 02:49:06;;;;;;;24.80;4.30;;;6.10;99.90;;;;;;5061559;28;20048;-63
2024/03/25 02:51:32;;;;;;;26.05;4.45;;;6.10;99.90;;;;;;5069620;28;20051;-63
2024/03/25 02:53:58;;;;;;;27.33;4.68;;;6.10;99.90;;;;;;5061190;28;20051;-64
2024/03/25 02:56:24;;;;;;;22.50;4.15;;;6.10;99.90;;;;;;5073331;28;20047;-63
2024/03/25 02:58:49;;;;;;;24.45;4.97;;;6.10;99.90;;;;;;5063029;28;20052;-63
2024/03/25 03:01:16;;;;;;;28.27;5.55;;;6.00;99.90;;;;;;5069119;28;20067;-63
2024/03/25 03:03:42;;;;;;;21.20;4.38;;;6.00;99.90;;;;;;5063991;28;20048;-63
2024/03/25 03:06:08;;;;;;;15.73;3.10;;;6.00;99.90;;;;;;5061216;28;20390;-63
2024/03/25 03:08:34;;;;;;;20.58;4.57;;;6.00;99.90;;;;;;5063906;28;20052;-63
2024/03/25 03:10:59;;;;;;;28.17;6.20;;;6.00;99.90;;;;;;5075227;28;20047;-63
2024/03/25 03:13:25;;;;;;;32.83;6.18;;;6.00;99.90;;;;;;5077674;28;20043;-63
2024/03/25 03:15:51;;;;;;;19.17;4.00;;;6.00;99.90;;;;;;5068488;28;20073;-63
2024/03/25 03:18:17;;;;;;;18.67;4.40;;;6.00;99.90;;;;;;5078271;28;20048;-64
2024/03/25 03:20:42;;;;;;;18.05;4.20;;;6.10;99.90;;;;;;5076348;28;20056;-63
2024/03/25 03:23:08;;;;;;;17.83;4.55;;;6.00;99.90;;;;;;5077951;28;20508;-63
2024/03/25 03:25:34;;;;;;;23.02;3.60;;;6.00;99.90;;;;;;5079912;28;20040;-63
2024/03/25 03:28:00;;;;;;;21.10;5.28;;;5.90;99.90;;;;;;5050825;28;20098;-63
2024/03/25 03:30:25;;;;;;;19.30;4.13;;;6.10;99.90;;;;;;5044454;28;20032;-63
2024/03/25 03:32:51;;;;;;;17.65;4.15;;;6.00;99.90;;;;;;5069208;28;20079;-63
2024/03/25 03:35:16;;;;;;;28.80;6.97;;;6.00;99.90;;;;;;5069510;28;20646;-63
2024/03/25 03:37:42;;;;;;;26.92;5.80;;;6.00;99.90;;;;;;5062183;28;20127;-63
2024/03/25 03:40:09;;;;;;;17.13;4.28;;;6.00;99.90;;;;;;5077818;28;20094;-63
2024/03/25 03:42:35;;;;;;;13.57;2.88;;;6.00;99.90;;;;;;5076799;28;20060;-63
2024/03/25 03:45:00;;;;;;;15.35;3.45;;;6.00;99.90;;;;;;5070102;28;20055;-63
2024/03/25 03:47:26;;;;;;;22.20;3.75;;;6.00;99.90;;;;;;5063593;28;20052;-63
2024/03/25 03:49:52;;;;;;;17.90;3.50;;;6.00;99.90;;;;;;5067152;28;20062;-63
2024/03/25 03:52:17;;;;;;;18.38;3.95;;;6.00;42.80;;;;;;5081106;28;20048;-63
2024/03/25 03:54:43;;;;;;;28.50;3.63;;;5.90;15.40;;;;;;5080067;28;20083;-63
2024/03/25 03:57:09;;;;;;;12.93;2.88;;;5.90;1.00;;;;;;5073071;28;20036;-64
2024/03/25 03:59:34;;;;;;;14.93;3.03;;;6.00;1.00;;;;;;5077058;28;20051;-63
2024/03/25 04:02:00;;;;;;;21.52;3.40;;;6.00;15.40;;;;;;5077736;28;20712;-63
2024/03/25 04:04:26;;;;;;;23.40;3.50;;;5.90;37.90;;;;;;5078058;28;20505;-63
2024/03/25 04:06:57;;;;;;;20.95;3.95;;;5.90;66.90;;;;;;5064676;28;20074;-63
2024/03/25 04:09:26;;;;;;;18.02;3.58;;;5.90;84.90;;;;;;5079232;28;20052;-63
2024/03/25 04:11:58;;;;;;;22.95;3.45;;;5.90;76.90;;;;;;5077124;28;20600;-63
2024/03/25 04:14:23;;;;;;;15.07;3.28;;;5.90;57.20;;;;;;5073481;28;20538;-64
2024/03/25 04:16:51;;;;;;;16.77;3.00;;;6.00;18.40;;;;;;5077131;28;20530;-63
2024/03/25 04:19:17;;;;;;;20.05;3.40;;;6.00;28.90;;;;;;5073721;28;20528;-63
2024/03/25 04:21:42;;;;;;;20.38;2.95;;;6.00;64.80;;;;;;5069149;28;20052;-63
2024/03/25 04:24:08;;;;;;;22.52;2.63;;;6.00;95.40;;;;;;5054082;28;20056;-63
2024/03/25 04:26:34;;;;;;;23.65;3.90;;;6.00;91.50;;;;;;5078075;28;20100;-63
2024/03/25 04:29:00;;;;;;;17.98;3.00;;;6.00;98.30;;;;;;5072179;28;20048;-63
2024/03/25 04:31:25;;;;;;;17.08;3.33;;;6.00;99.40;;;;;;5077328;28;20040;-63
2024/03/25 04:33:51;;;;;;;19.65;4.22;;;6.00;99.90;;;;;;5068378;28;20067;-63
2024/03/25 04:36:18;;;;;;;15.35;3.78;;;6.00;99.90;;;;;;5070491;28;20909;-63
2024/03/25 04:38:44;;;;;;;24.48;3.72;;;5.90;99.90;;;;;;5080165;28;20048;-63
2024/03/25 04:41:09;;;;;;;22.17;3.22;;;5.90;99.90;;;;;;5066752;28;20045;-63
2024/03/25 04:43:35;;;;;;;27.10;4.80;;;5.90;99.90;;;;;;5048806;28;20048;-63
2024/03/25 04:46:01;;;;;;;24.80;4.60;;;5.90;99.90;;;;;;5063816;28;20127;-63
2024/03/25 04:48:27;;;;;;;20.10;3.53;;;6.00;99.90;;;;;;5077520;28;20075;-63
2024/03/25 04:50:52;;;;;;;30.30;2.30;;;5.90;99.90;;;;;;5070212;28;20082;-63
2024/03/25 04:53:18;;;;;;;15.75;2.95;;;5.90;99.90;;;;;;5075996;28;20048;-63
2024/03/25 04:55:44;;;;;;;17.95;2.70;;;5.90;99.90;;;;;;5084176;28;20064;-63
2024/03/25 04:58:09;;;;;;;11.88;1.77;;;5.90;99.90;;;;;;5081305;28;20070;-63
2024/03/25 05:00:35;;;;;;;18.88;2.67;;;5.90;82.80;;;;;;5071778;28;20056;-63
2024/03/25 05:03:01;;;;;;;15.93;2.08;;;5.90;69.00;;;;;;5073132;28;20529;-63
2024/03/25 05:05:26;;;;;;;20.25;3.38;;;5.90;78.20;;;;;;5073406;28;20115;-63
2024/03/25 05:07:52;;;;;;;18.33;3.45;;;5.90;90.70;;;;;;5061514;28;20079;-63
2024/03/25 05:10:18;;;;;;;18.38;2.97;;;5.90;95.50;;;;;;5068012;28;20044;-63
2024/03/25 05:12:44;;;;;;;20.52;4.75;;;5.90;99.90;;;;;;5066860;28;20048;-63
2024/03/25 05:15:10;;;;;;;18.73;3.35;;;5.90;99.90;;;;;;5077859;28;20036;-63
2024/03/25 05:17:36;;;;;;;13.23;2.97;;;5.90;99.90;;;;;;5078686;28;20044;-63
2024/03/25 05:20:04;;;;;;;12.85;2.47;;;5.80;99.90;;;;;;5076919;28;20443;-63
2024/03/25 05:22:33;;;;;;;14.40;2.13;;;5.80;99.90;;;;;;5070685;28;20084;-64
2024/03/25 05:24:59;;;;;;;22.02;3.20;;;5.80;99.90;;;;;;5077685;28;20056;-63
2024/03/25 05:27:24;;;;;;;19.40;3.60;;;5.70;99.90;;;;;;5076544;28;20486;-63
2024/03/25 05:29:50;;;;;;;9.23;1.83;;;5.70;99.90;;;;;;5078808;28;20095;-63
2024/03/25 05:32:21;;;;;;;19.05;3.05;;;5.80;99.90;;;;;;5070187;28;20114;-63
2024/03/25 05:34:48;;;;;;;15.10;2.00;;;5.80;99.90;;;;;;5082280;28;20110;-63
2024/03/25 05:37:14;;;;;;;20.27;2.28;;;5.80;99.90;;;;;;5074087;28;20544;-63
2024/03/25 05:39:40;;;;;;;8.90;2.13;;;5.80;99.90;;;;;;5081119;28;20555;-63
2024/03/25 05:42:06;;;;;;;13.43;2.38;;;5.80;99.90;;;;;;5073211;28;20053;-64
2024/03/25 05:44:31;;;;;;;24.38;2.83;;;5.80;99.90;;;;;;5065022;28;20036;-63
2024/03/25 05:46:57;;;;;;;23.45;3.15;;;5.80;99.90;;;;;;5070036;28;20109;-63
2024/03/25 05:49:23;;;;;;;8.93;1.67;;;5.80;99.90;;;;;;5077111;28;20050;-63
2024/03/25 05:51:49;;;;;;;16.60;2.28;;;5.80;99.90;;;;;;5079188;28;20512;-63
2024/03/25 05:54:14;;;;;;;19.52;2.25;;;5.90;99.90;;;;;;5082062;28;20063;-63
2024/03/25 05:56:40;;;;;;;14.80;2.22;;;5.90;99.90;;;;;;5080928;28;20044;-63
2024/03/25 05:59:06;;;;;;;16.92;2.10;;;5.80;97.00;;;;;;5068611;28;20056;-63
2024/03/25 06:01:33;;;;;;;15.35;1.88;;;5.80;97.30;;;;;;5082120;28;20044;-63
2024/03/25 06:03:59;;;;;;;15.40;2.03;;;5.80;99.90;;;;;;5068722;28;20885;-63
2024/03/25 06:06:25;;;;;;;16.30;1.98;;;5.70;99.90;;;;;;5071138;28;20044;-63
2024/03/25 06:08:50;;;;;;;18.75;2.63;;;5.80;99.90;;;;;;5081070;28;20530;-63
2024/03/25 06:11:17;;;;;;;12.40;1.75;;;5.80;99.90;;;;;;5077527;28;20047;-63
2024/03/25 06:13:47;;;;;;;9.13;1.30;;;5.90;99.90;;;;;;5076268;28;20402;-63
2024/03/25 06:16:13;;;;;;;10.80;1.42;;;5.90;99.90;;;;;;5069406;28;20044;-63
2024/03/25 06:18:40;;;;;;;15.50;2.67;;;5.90;99.90;;;;;;5081887;28;20599;-63
2024/03/25 06:21:06;;;;;;;9.32;2.42;;;5.80;99.90;;;;;;5072983;28;21284;-63
2024/03/25 06:23:31;;;;;;;13.52;1.85;;;5.80;99.90;;;;;;5076682;28;20521;-63
2024/03/25 06:25:57;;;;;;;18.67;3.03;;;5.70;99.90;;;;;;5073049;28;20048;-63
2024/03/25 06:28:23;;;;;;;17.13;3.50;;;5.70;99.90;;;;;;5078001;28;20159;-63
2024/03/25 06:36:20;;;;;;;12.93;1.33;;;5.60;99.90;;;;;;5080396;28;20052;-63
2024/03/25 06:38:45;;;;;;;11.20;1.80;;;5.70;99.90;;;;;;5071769;28;20052;-63
2024/03/25 06:41:11;;;;;;;11.55;1.73;;;6.00;99.90;;;;;;5078386;28;20048;-63
2024/03/25 06:43:46;;;;;;;17.35;1.80;;;6.20;99.90;;;;;;5071749;28;20074;-63
2024/03/25 06:46:12;;;;;;;8.95;1.23;;;6.60;99.90;;;;;;5078507;28;20043;-63
2024/03/25 06:48:38;;;;;;;10.73;1.25;;;6.80;87.60;;;;;;5082038;28;20044;-63
2024/03/25 06:51:04;;;;;;;13.00;1.65;;;6.90;42.50;;;;;;5076944;28;20422;-63
2024/03/25 06:53:30;;;;;;;4.72;1.38;;;7.10;37.40;;;;;;5079780;28;20616;-63
2024/03/25 06:55:57;;;;;;;10.18;1.70;;;7.30;47.20;;;;;;5075357;28;20064;-63
2024/03/25 06:58:24;;;;;;;13.80;2.38;;;7.40;5.80;;;;;;5068608;28;20047;-63
2024/03/25 07:00:51;;;;;;;14.45;1.70;;;7.50;37.00;;;;;;5078909;28;20819;-63
2024/03/25 07:03:19;;;;;;;12.48;1.63;;;7.40;1.00;;;;;;5074452;28;20044;-63
2024/03/25 07:05:46;;;;;;;14.45;1.70;;;7.30;1.00;;;;;;5078879;28;20064;-63
2024/03/25 07:08:12;;;;;;;14.60;1.65;;;7.30;1.00;;;;;;5075744;28;20079;-63
2024/03/25 07:10:38;;;;;;;17.63;1.73;;;7.40;1.00;;;;;;5068481;28;20129;-63
2024/03/25 07:13:05;;;;;;;14.85;1.83;;;7.50;1.00;;;;;;5075417;28;20036;-63
2024/03/25 07:15:31;;;;;;;18.75;2.33;;;7.70;1.00;;;;;;5069168;28;20048;-63
2024/03/25 07:17:57;;;;;;;10.98;1.83;;;7.80;1.00;;;;;;5079942;28;20405;-63
2024/03/25 07:20:23;;;;;;;9.43;1.35;;;7.90;1.00;;;;;;5060569;28;20053;-63
2024/03/25 07:22:49;;;;;;;12.38;1.77;;;7.90;1.00;;;;;;5078341;28;20048;-63
2024/03/25 07:25:15;;;;;;;9.10;1.70;;;8.00;1.00;;;;;;5075915;28;20048;-63
2024/03/25 07:27:40;;;;;;;11.48;2.13;;;8.00;1.00;;;;;;5076803;28;20270;-63
2024/03/25 07:30:10;;;;;;;16.08;2.05;;;8.00;1.00;;;;;;5065647;28;20075;-63
2024/03/25 07:32:36;;;;;;;11.73;2.45;;;7.90;1.00;;;;;;5071279;28;20422;-63
2024/03/25 07:35:09;;;;;;;18.02;2.45;;;7.90;1.00;;;;;;5067299;28;20405;-63
2024/03/25 07:37:35;;;;;;;27.23;4.63;;;7.90;1.00;;;;;;5062096;28;20370;-63
2024/03/25 07:40:01;;;;;;;13.25;1.95;;;7.80;1.00;;;;;;5070307;28;20071;-63
2024/03/25 07:42:27;;;;;;;19.67;2.53;;;7.80;1.00;;;;;;5069802;28;20105;-63
2024/03/25 07:44:52;;;;;;;13.82;2.55;;;7.70;1.00;;;;;;5077037;28;20141;-63
2024/03/25 07:47:19;;;;;;;17.27;1.85;;;7.70;1.00;;;;;;5065305;28;20126;-63
2024/03/25 07:49:44;;;;;;;13.80;2.65;;;7.70;1.00;;;;;;5066232;28;20588;-63
2024/03/25 07:52:10;;;;;;;12.98;2.15;;;7.80;1.00;;;;;;5064080;28;20097;-63
2024/03/25 07:54:37;;;;;;;16.35;1.70;;;7.80;1.00;;;;;;5067896;28;20040;-63
2024/03/25 07:57:04;;;;;;;13.10;1.52;;;7.90;1.00;;;;;;5062961;28;20101;-63
2024/03/25 07:59:30;;;;;;;15.73;2.22;;;8.10;1.00;;;;;;5062523;28;20045;-63
2024/03/25 08:01:55;;;;;;;14.80;2.70;;;8.10;1.00;;;;;;5072377;28;20045;-63
2024/03/25 08:04:21;;;;;;;11.43;2.13;;;8.30;1.00;;;;;;5059802;28;20040;-63
2024/03/25 08:06:47;;;;;;;13.50;2.15;;;8.50;1.00;;;;;;5078912;28;20569;-63
2024/03/25 08:09:15;;;;;;;12.95;2.45;;;8.60;1.00;;;;;;5075960;28;20666;-63
2024/03/25 08:11:43;;;;;;;16.50;3.45;;;8.60;99.90;;;;;;5066343;28;20082;-63
2024/03/25 08:14:09;;;;;;;9.85;2.33;;;8.50;99.90;;;;;;5066869;28;20039;-63
2024/03/25 08:16:35;;;;;;;14.23;1.38;;;8.60;1.00;;;;;;5068580;28;20094;-63
2024/03/25 08:19:01;;;;;;;5.15;1.10;;;8.50;99.90;;;;;;5071828;28;20438;-63
2024/03/25 08:21:26;;;;;;;11.43;1.67;;;8.50;99.90;;;;;;5066994;28;20055;-63
2024/03/25 08:23:52;;;;;;;13.70;2.80;;;8.40;1.00;;;;;;5072878;28;20131;-63
2024/03/25 08:26:18;;;;;;;11.95;3.10;;;8.50;1.00;;;;;;5078922;28;20083;-63
2024/03/25 08:28:44;;;;;;;15.05;3.40;;;8.50;1.00;;;;;;5090791;28;20495;-63
2024/03/25 08:31:10;;;;;;;10.32;2.08;;;8.40;1.00;;;;;;5089984;28;20073;-63
2024/03/25 08:33:35;;;;;;;17.27;2.97;;;8.40;1.00;;;;;;5096671;28;20459;-63
2024/03/25 08:36:01;;;;;;;13.88;1.90;;;8.30;1.00;;;;;;5093728;28;20040;-63
2024/03/25 08:38:28;;;;;;;10.43;1.80;;;8.30;1.00;;;;;;5074997;28;20115;-63
2024/03/25 08:40:54;;;;;;;16.65;1.80;;;8.40;1.00;;;;;;5078184;28;20044;-63
2024/03/25 08:43:19;;;;;;;5.38;1.13;;;8.40;1.00;;;;;;5073062;28;20667;-63
2024/03/25 08:45:46;;;;;;;9.25;1.13;;;8.50;1.00;;;;;;5075157;28;20040;-63
2024/03/25 08:48:11;;;;;;;13.02;1.75;;;8.50;99.90;;;;;;5075232;28;20074;-63
2024/03/25 08:50:37;;;;;;;8.05;1.40;;;8.70;99.90;;;;;;5079128;28;20048;-63
2024/03/25 08:53:04;;;;;;;10.00;1.92;;;8.90;99.90;;;;;;5084730;28;20082;-63
2024/03/25 08:55:30;;;;;;;15.52;2.08;;;9.00;99.90;;;;;;5078650;28;20411;-63
2024/03/25 08:57:58;;;;;;;12.27;2.13;;;9.00;99.90;;;;;;5070509;28;20595;-63
2024/03/25 09:00:27;;;;;;;19.70;2.22;;;9.10;99.90;;;;;;5063665;28;20052;-63
2024/03/25 09:02:53;;;;;;;9.25;1.60;;;9.00;99.90;;;;;;5074657;28;20047;-63
2024/03/25 09:05:23;;;;;;;10.60;1.45;;;9.00;99.90;;;;;;5064161;28;20048;-63
2024/03/25 09:07:51;;;;;;;9.13;1.38;;;9.30;99.90;;;;;;5065851;28;20082;-63
2024/03/25 09:13:05;;;;;;;14.13;2.85;;;9.80;99.90;;;;;;5073551;28;20106;-63
2024/03/25 09:15:31;;;;;;;8.43;1.45;;;9.80;99.90;;;;;;5068509;28;20111;-63
2024/03/25 09:17:57;;;;;;;9.48;1.38;;;9.80;99.90;;;;;;5072562;28;20050;-64
2024/03/25 09:20:23;;;;;;;8.40;1.10;;;9.80;99.90;;;;;;5068105;28;20086;-63
2024/03/25 09:22:49;;;;;;;3.22;1.00;;;9.90;99.90;;;;;;5063740;28;20051;-63
2024/03/25 09:25:16;;;;;;;5.20;1.20;;;10.00;99.90;;;;;;5083659;28;20040;-63
2024/03/25 09:27:46;;;;;;;6.40;0.82;;;10.00;99.90;;;;;;5067984;28;20036;-63
2024/03/25 09:30:12;;;;;;;7.50;1.20;;;9.90;99.90;;;;;;5080305;28;20055;-62
2024/03/25 09:32:38;;;;;;;15.52;1.92;;;9.80;99.90;;;;;;5075843;28;20407;-63
2024/03/25 09:35:05;;;;;;;6.45;1.20;;;9.80;99.90;;;;;;5074094;28;20050;-63
2024/03/25 09:37:31;;;;;;;16.63;1.20;;;10.10;99.90;;;;;;5076939;28;20139;-63
2024/03/25 09:39:58;;;;;;;4.88;1.63;;;10.40;99.90;;;;;;5081531;28;20398;-63
2024/03/25 09:42:31;;;;;;;5.85;1.27;;;10.70;99.90;;;;;;5082712;28;20504;-63
2024/03/25 09:44:57;;;;;;;6.63;1.45;;;10.70;99.90;;;;;;5085767;28;20036;-63
2024/03/25 09:47:30;;;;;;;8.85;1.20;;;10.30;99.90;;;;;;5087677;28;20101;-63
2024/03/25 09:49:57;;;;;;;5.15;1.17;;;10.00;99.90;;;;;;5083479;28;20178;-63
2024/03/25 09:52:23;;;;;;;15.10;1.58;;;9.80;99.90;;;;;;5082153;28;20044;-63
2024/03/25 09:54:49;;;;;;;7.00;1.40;;;9.90;99.90;;;;;;5072615;28;20052;-63
2024/03/25 09:57:16;;;;;;;3.05;0.82;;;9.80;99.90;;;;;;5075028;28;20161;-63
2024/03/25 09:59:43;;;;;;;5.32;1.48;;;9.80;99.90;;;;;;5063570;28;20041;-63
2024/03/25 10:02:11;;;;;;;1.38;0.73;;;9.70;99.90;;;;;;5078050;28;20040;-63
2024/03/25 10:04:47;;;;;;;4.43;1.17;;;9.60;99.90;;;;;;5080117;28;20426;-63
2024/03/25 10:07:25;;;;;;;9.02;1.45;;;9.80;99.90;;;;;;5075944;28;20153;-63
2024/03/25 10:09:51;;;;;;;3.65;0.93;;;9.90;99.90;;;;;;5064728;28;20044;-62
2024/03/25 10:12:17;;;;;;;4.97;0.90;;;9.90;99.90;;;;;;5073552;28;20178;-62
2024/03/25 10:14:43;;;;;;;10.90;1.45;;;10.00;99.90;;;;;;5069505;28;20128;-63
2024/03/25 10:17:09;;;;;;;6.95;0.85;;;9.90;99.90;;;;;;5075425;28;20376;-63
2024/03/25 10:19:35;;;;;;;4.38;1.08;;;9.90;99.90;;;;;;5073835;28;20048;-63
2024/03/25 10:22:08;;;;;;;10.52;2.22;;;9.90;99.90;;;;;;5072915;28;20518;-64
2024/03/25 10:24:41;;;;;;;12.00;3.60;;;9.80;99.90;;;;;;5068910;28;20084;-64
2024/03/25 10:27:11;;;;;;;9.73;1.30;;;9.60;99.90;;;;;;5052680;28;20059;-64
2024/03/25 10:29:37;;;;;;;4.85;1.63;;;9.40;99.90;;;;;;5071627;28;20048;-65
2024/03/25 10:32:04;;;;;;;9.07;1.75;;;9.40;99.90;;;;;;5072055;28;20133;-63
2024/03/25 10:34:31;;;;;;;7.65;1.52;;;9.30;99.90;;;;;;5068445;28;20124;-62
2024/03/25 10:36:58;;;;;;;10.30;1.27;;;9.30;99.90;;;;;;5078060;28;20066;-62
2024/03/25 10:39:30;;;;;;;7.25;1.23;;;9.60;99.90;;;;;;5079657;28;20079;-62
2024/03/25 10:41:57;;;;;;;11.80;1.27;;;9.90;99.90;;;;;;5072697;28;20466;-62
2024/03/25 10:44:24;;;;;;;5.80;0.88;;;10.00;99.90;;;;;;5078113;28;20048;-62
2024/03/25 10:46:57;;;;;;;6.57;1.90;;;10.00;99.90;;;;;;5089828;28;20501;-62
2024/03/25 10:49:49;;;;;;;9.00;1.63;;;9.90;99.90;;;;;;5066925;28;20040;-62
2024/03/25 10:52:17;;;;;;;9.25;1.80;;;9.60;99.90;;;;;;5070143;28;20060;-63
2024/03/25 10:54:44;;;;;;;5.03;1.25;;;9.30;99.90;;;;;;5069367;28;20132;-62
2024/03/25 10:57:12;;;;;;;6.63;1.20;;;8.90;99.90;;;;;;5062609;28;20047;-63
2024/03/25 10:59:41;;;;;;;6.95;0.95;;;8.50;99.90;;;;;;5076571;28;20059;-62
2024/03/25 11:02:10;;;;;;;2.53;0.70;;;8.10;1.00;;;;;;5069716;28;20052;-63
2024/03/25 11:04:37;;;;;;;4.45;0.93;;;7.80;1.00;;;;;;5070249;28;20104;-62
2024/03/25 11:07:14;;;;;;;3.85;0.93;;;7.60;37.20;;;;;;5064905;28;20052;-62
2024/03/25 11:09:45;;;;;;;5.72;0.80;;;7.80;99.90;;;;;;5069539;28;20087;-63
2024/03/25 11:12:12;;;;;;;7.95;1.10;;;8.00;99.90;;;;;;5070900;28;20154;-63
2024/03/25 11:14:39;;;;;;;4.20;1.05;;;8.20;99.90;;;;;;5072668;28;20052;-63
2024/03/25 11:17:18;;;;;;;4.05;1.00;;;8.40;99.90;;;;;;5060635;28;20127;-63
2024/03/25 11:19:43;;;;;;;5.95;1.35;;;8.70;99.90;;;;;;5069595;28;20135;-63
2024/03/25 11:22:11;;;;;;;4.93;0.95;;;8.90;99.90;;;;;;5062415;28;20465;-62
2024/03/25 11:24:38;;;;;;;7.72;1.08;;;9.20;99.90;;;;;;5075865;28;20048;-63
2024/03/25 11:27:10;;;;;;;5.38;0.75;;;9.20;43.80;;;;;;5061368;28;20044;-62
2024/03/25 11:29:35;;;;;;;7.38;1.65;;;9.20;1.00;;;;;;5073916;28;20067;-62
2024/03/25 11:32:05;;;;;;;4.93;1.30;;;9.20;1.00;;;;;;5072052;28;20778;-63
2024/03/25 11:34:31;;;;;;;6.63;1.37;;;9.10;1.00;;;;;;5069080;28;20565;-63
2024/03/25 11:36:57;;;;;;;4.88;0.95;;;9.00;1.00;;;;;;5071502;28;20311;-63
2024/03/25 11:39:28;;;;;;;10.13;1.17;;;8.80;1.00;;;;;;5060100;28;20048;-62
2024/03/25 11:41:54;;;;;;;4.93;1.05;;;8.50;1.00;;;;;;5075547;28;20083;-62
2024/03/25 11:44:22;;;;;;;9.18;1.25;;;8.40;1.00;;;;;;5075704;28;20181;-63
2024/03/25 11:46:50;;;;;;;6.90;1.00;;;8.20;1.00;;;;;;5069343;28;20043;-63
2024/03/25 11:49:19;;;;;;;3.55;0.80;;;8.10;1.00;;;;;;5075432;28;20048;-63
2024/03/25 11:51:46;;;;;;;3.85;0.98;;;8.00;1.00;;;;;;5076565;28;20036;-64
2024/03/25 11:54:12;;;;;;;6.38;1.33;;;7.90;1.00;;;;;;5070944;28;20683;-63
2024/03/25 11:56:39;;;;;;;7.13;0.88;;;8.00;34.30;;;;;;5071959;28;20051;-64
2024/03/25 11:59:05;;;;;;;5.40;0.80;;;8.00;1.00;;;;;;5073691;28;20129;-63
2024/03/25 12:01:31;;;;;;;6.65;0.95;;;7.90;1.00;;;;;;5071335;28;20052;-63
2024/03/25 12:03:57;;;;;;;4.72;0.80;;;7.90;1.00;;;;;;5075924;28;20044;-63
2024/03/25 12:06:23;;;;;;;3.55;1.10;;;7.90;1.00;;;;;;5073902;28;20044;-63
2024/03/25 12:11:33;;;;;;;5.22;1.00;;;8.00;1.00;;;;;;5075519;28;20447;-63
2024/03/25 12:14:00;;;;;;;5.00;0.90;;;8.00;1.00;;;;;;5070338;28;20036;-64
2024/03/25 12:16:26;;;;;;;4.97;0.90;;;8.00;1.00;;;;;;5076980;28;20051;-63
2024/03/25 12:18:55;;;;;;;6.32;0.95;;;8.00;1.00;;;;;;5073595;28;20045;-63
2024/03/25 12:21:20;;;;;;;7.63;1.00;;;8.10;1.00;;;;;;5073952;28;20120;-63
2024/03/25 12:23:47;;;;;;;6.90;1.42;;;8.20;1.00;;;;;;5070072;28;20139;-64
2024/03/25 12:26:16;;;;;;;6.40;0.82;;;8.40;1.00;;;;;;5075109;28;20050;-64
2024/03/25 12:28:42;;;;;;;2.13;0.70;;;8.50;99.90;;;;;;5073317;28;20120;-64
2024/03/25 12:31:08;;;;;;;11.45;1.40;;;8.60;99.90;;;;;;5065715;28;20052;-64
2024/03/25 12:33:41;;;;;;;8.98;1.25;;;8.60;99.90;;;;;;5064904;28;20048;-64
2024/03/25 12:36:06;;;;;;;6.30;1.50;;;8.70;99.90;;;;;;5078997;28;20044;-63
2024/03/25 12:38:32;;;;;;;5.65;1.17;;;8.70;99.90;;;;;;5064504;28;20036;-63
2024/03/25 12:41:09;;;;;;;10.98;1.25;;;8.70;99.90;;;;;;5066814;28;20051;-63
2024/03/25 12:43:36;;;;;;;2.28;0.75;;;8.70;99.90;;;;;;5072839;28;20040;-63
2024/03/25 12:46:05;;;;;;;7.70;0.98;;;8.70;99.90;;;;;;5074632;28;20490;-64
2024/03/25 12:48:31;;;;;;;6.40;1.20;;;8.60;99.90;;;;;;5066999;28;20052;-64
2024/03/25 12:50:57;;;;;;;7.25;1.40;;;8.50;99.90;;;;;;5076946;28;20044;-63
2024/03/25 12:53:23;;;;;;;7.13;1.45;;;8.50;99.90;;;;;;5067155;28;20102;-64
2024/03/25 12:55:49;;;;;;;6.82;0.90;;;8.50;99.90;;;;;;5078689;28;20047;-63
2024/03/25 12:58:15;;;;;;;4.28;1.10;;;8.50;99.90;;;;;;5067920;28;20048;-63
2024/03/25 13:00:41;;;;;;;4.82;0.90;;;8.40;99.90;;;;;;5064931;28;20181;-63